アナディリ の空港の天気 - METARとTAF

アナディリ・ウゴルヌイ空港 ( UHMA / DYR ) - ロシア アナディリ
飛行場実況気象(Metar)
観測時間01/17 17:00 +11 (01/17 06:00 UTC)
風向・風速北 7m/s
視程10km以上
天気現象
なし
気温-27℃
湿度76%
気圧1007hPa
METARUHMA 170600Z 35007MPS CAVOK M27/M30 Q1007 R88/75//42 NOSIG RMK QFE751/1002
過去の天気等 Google飛行場航空写真 Wunderground天気予報

過去48時間のMETAR

飛行場予報(TAF)
発表時間: 1/17 15:51 +11 (1/17 04:51 UTC)
予報対象時間: 17日17時 +11 ~ 18日17時 +11
風向・風速北 5m/s
視程10km以上
なし
17日17時 +11 ~ 18日17時 +11 に一時的に
風向・風速北北西 7m/s
TAF UHMA 170451Z 1706/1806 35005MPS 9999 NSC
TEMPO 1706/1806 33007MPS